createdAt,value
2023-05-19T00:00:38.352Z,36.49
2023-05-19T00:01:38.315Z,36.50
2023-05-19T00:02:38.419Z,36.52
2023-05-19T00:03:38.449Z,36.50
2023-05-19T00:04:38.382Z,36.50
2023-05-19T00:05:38.427Z,36.50
2023-05-19T00:06:38.416Z,36.51
2023-05-19T00:07:38.426Z,36.53
2023-05-19T00:08:38.523Z,36.50
2023-05-19T00:09:38.470Z,36.56
2023-05-19T00:10:38.418Z,36.54
2023-05-19T00:11:39.097Z,36.52
2023-05-19T00:12:38.463Z,36.51
2023-05-19T00:13:38.446Z,36.50
2023-05-19T00:14:38.483Z,36.51
2023-05-19T00:15:38.554Z,36.48
2023-05-19T00:16:38.484Z,36.51
2023-05-19T00:17:38.529Z,36.52
2023-05-19T00:18:38.588Z,36.50
2023-05-19T00:19:38.544Z,36.52
2023-05-19T00:20:38.501Z,36.54
2023-05-19T00:21:38.494Z,36.51
2023-05-19T00:22:38.506Z,36.52
2023-05-19T00:23:38.518Z,36.55
2023-05-19T00:24:38.555Z,36.53
2023-05-19T00:25:38.546Z,36.50
2023-05-19T00:26:38.569Z,36.54
2023-05-19T00:27:38.585Z,36.50
2023-05-19T00:28:38.609Z,36.49
2023-05-19T00:29:38.612Z,36.53
2023-05-19T00:30:38.588Z,36.54
2023-05-19T00:31:38.650Z,36.51
2023-05-19T00:32:38.684Z,36.49
2023-05-19T00:33:38.668Z,36.52
2023-05-19T00:34:38.675Z,36.54
2023-05-19T00:35:38.628Z,36.55
2023-05-19T00:36:38.663Z,36.51
2023-05-19T00:37:38.694Z,36.53
2023-05-19T00:38:38.644Z,36.55
2023-05-19T00:39:38.676Z,36.54
2023-05-19T00:40:38.716Z,36.55
2023-05-19T00:41:38.695Z,36.53
2023-05-19T00:42:38.695Z,36.57
2023-05-19T00:43:38.709Z,36.57
2023-05-19T00:44:38.734Z,36.57
2023-05-19T00:45:38.758Z,36.54
2023-05-19T00:46:38.777Z,36.53
2023-05-19T00:47:38.854Z,36.51
2023-05-19T00:48:38.803Z,36.56
2023-05-19T00:49:38.805Z,36.57
2023-05-19T00:50:38.820Z,36.57
2023-05-19T00:51:38.836Z,36.56
2023-05-19T00:52:38.913Z,36.59
2023-05-19T00:53:38.873Z,36.60
2023-05-19T00:54:38.881Z,36.58
2023-05-19T00:55:38.906Z,36.60
2023-05-19T00:56:38.935Z,36.56
2023-05-19T00:57:38.968Z,36.58
2023-05-19T00:58:38.977Z,36.58
2023-05-19T00:59:38.973Z,36.56
2023-05-19T01:00:39.027Z,36.56
2023-05-19T01:01:39.081Z,36.55
2023-05-19T01:02:39.212Z,36.54
2023-05-19T01:03:39.158Z,36.55
2023-05-19T01:04:39.095Z,36.54
2023-05-19T01:05:39.087Z,36.58
2023-05-19T01:06:39.140Z,36.58
2023-05-19T01:07:39.128Z,36.56
2023-05-19T01:08:39.122Z,36.56
2023-05-19T01:09:39.142Z,36.54
2023-05-19T01:10:39.167Z,36.58
2023-05-19T01:11:39.191Z,36.57
2023-05-19T01:12:39.176Z,36.57
2023-05-19T01:13:41.930Z,36.58
2023-05-19T01:14:39.203Z,36.59
2023-05-19T01:15:39.202Z,36.59
2023-05-19T01:16:39.241Z,36.59
2023-05-19T01:17:39.204Z,36.61
2023-05-19T01:18:39.243Z,36.60
2023-05-19T01:19:39.164Z,36.56
2023-05-19T01:20:39.190Z,36.56
2023-05-19T01:21:39.183Z,36.58
2023-05-19T01:22:39.157Z,36.59
2023-05-19T01:23:39.153Z,36.56
2023-05-19T01:24:39.139Z,36.59
2023-05-19T01:25:39.156Z,36.62
2023-05-19T01:26:39.113Z,36.56
2023-05-19T01:27:39.141Z,36.59
2023-05-19T01:28:39.132Z,36.59
2023-05-19T01:29:39.108Z,36.63
2023-05-19T01:30:39.102Z,36.61
2023-05-19T01:31:39.117Z,36.56
2023-05-19T01:32:39.143Z,36.59
2023-05-19T01:33:39.077Z,36.59
2023-05-19T01:34:39.092Z,36.61
2023-05-19T01:35:39.112Z,36.63
2023-05-19T01:36:39.085Z,36.58
2023-05-19T01:37:39.048Z,36.59
2023-05-19T01:38:39.055Z,36.61
2023-05-19T01:39:39.049Z,36.61
2023-05-19T01:40:39.028Z,36.60
2023-05-19T01:41:39.037Z,36.58
2023-05-19T01:42:39.039Z,36.57
2023-05-19T01:43:39.050Z,36.60
2023-05-19T01:44:38.988Z,36.59
2023-05-19T01:45:39.026Z,36.60
2023-05-19T01:46:38.991Z,36.58
2023-05-19T01:47:39.004Z,36.60
2023-05-19T01:48:38.975Z,36.62
2023-05-19T01:49:38.987Z,36.61
2023-05-19T01:50:38.981Z,36.61
2023-05-19T01:51:38.925Z,36.62
2023-05-19T01:52:38.937Z,36.61
2023-05-19T01:53:38.942Z,36.60
2023-05-19T01:54:38.935Z,36.63
2023-05-19T01:55:38.961Z,36.62
2023-05-19T01:56:38.949Z,36.64
2023-05-19T01:57:38.958Z,36.62
2023-05-19T01:58:38.940Z,36.62
2023-05-19T01:59:38.953Z,36.61
2023-05-19T02:00:38.896Z,36.63
2023-05-19T02:01:38.983Z,36.63
2023-05-19T02:02:38.991Z,36.64
2023-05-19T02:03:38.881Z,36.60
2023-05-19T02:04:39.013Z,36.61
2023-05-19T02:05:38.894Z,36.63
2023-05-19T02:06:38.833Z,36.61
2023-05-19T02:07:38.909Z,36.64
2023-05-19T02:08:38.860Z,36.64
2023-05-19T02:09:38.871Z,36.62
2023-05-19T02:10:38.949Z,36.61
2023-05-19T02:11:38.849Z,36.61
2023-05-19T02:12:38.846Z,36.59
2023-05-19T02:13:38.854Z,36.60
2023-05-19T02:14:38.790Z,36.64
2023-05-19T02:15:38.946Z,36.66
2023-05-19T02:16:38.809Z,36.65
2023-05-19T02:17:38.870Z,36.64
2023-05-19T02:18:38.838Z,36.60
2023-05-19T02:19:38.773Z,36.63
2023-05-19T02:20:38.781Z,36.66
2023-05-19T02:21:38.814Z,36.65
2023-05-19T02:22:38.746Z,36.64
2023-05-19T02:23:38.801Z,36.63
2023-05-19T02:24:38.748Z,36.63
2023-05-19T02:25:38.775Z,36.63
2023-05-19T02:26:38.731Z,36.65
2023-05-19T02:27:38.678Z,36.63
2023-05-19T02:28:38.711Z,36.66
2023-05-19T02:29:38.727Z,36.67
2023-05-19T02:30:38.684Z,36.64
2023-05-19T02:31:38.768Z,36.62
2023-05-19T02:32:38.754Z,36.62
2023-05-19T02:33:38.675Z,36.65
2023-05-19T02:34:38.672Z,36.65
2023-05-19T02:35:38.684Z,36.66
2023-05-19T02:36:38.632Z,36.63
2023-05-19T02:37:38.698Z,36.63
2023-05-19T02:38:38.646Z,36.64
2023-05-19T02:39:38.647Z,36.64
2023-05-19T02:40:38.670Z,36.62
2023-05-19T02:41:38.653Z,36.67
2023-05-19T02:42:38.624Z,36.67
2023-05-19T02:43:38.636Z,36.66
2023-05-19T02:44:38.689Z,36.68
2023-05-19T02:45:38.691Z,36.67
2023-05-19T02:46:38.782Z,36.68
2023-05-19T02:47:38.804Z,36.67
2023-05-19T02:48:38.786Z,36.66
2023-05-19T02:49:38.775Z,36.65
2023-05-19T02:50:38.774Z,36.65
2023-05-19T02:51:38.846Z,36.63
2023-05-19T02:52:38.841Z,36.67
2023-05-19T02:53:38.840Z,36.68
2023-05-19T02:54:38.896Z,36.69
2023-05-19T02:55:38.920Z,36.71
2023-05-19T02:56:38.948Z,36.67
2023-05-19T02:57:39.000Z,36.68
2023-05-19T02:58:39.029Z,36.68
2023-05-19T02:59:39.047Z,36.67
2023-05-19T03:00:39.046Z,36.67
2023-05-19T03:01:39.164Z,36.71
2023-05-19T03:02:39.235Z,36.72
2023-05-19T03:03:39.237Z,36.72
2023-05-19T03:04:39.180Z,36.70
2023-05-19T03:05:39.215Z,36.68
2023-05-19T03:06:39.237Z,36.68
2023-05-19T03:07:39.325Z,36.65
2023-05-19T03:08:41.621Z,36.67
2023-05-19T03:09:39.302Z,36.68
2023-05-19T03:10:39.265Z,36.69
2023-05-19T03:11:39.264Z,36.67
2023-05-19T03:12:39.262Z,36.69
2023-05-19T03:13:39.260Z,36.68
2023-05-19T03:14:39.265Z,36.70
2023-05-19T03:15:39.260Z,36.68
2023-05-19T03:16:39.355Z,36.68
2023-05-19T03:17:39.298Z,36.70
2023-05-19T03:18:39.250Z,36.69
2023-05-19T03:19:39.223Z,36.69
2023-05-19T03:20:41.586Z,36.70
2023-05-19T03:21:39.264Z,36.69
2023-05-19T03:22:39.314Z,36.65
2023-05-19T03:23:39.364Z,36.67
2023-05-19T03:24:39.360Z,36.66
2023-05-19T03:25:39.429Z,36.66
2023-05-19T03:26:39.391Z,36.68
2023-05-19T03:27:39.416Z,36.68
2023-05-19T03:28:39.469Z,36.70
2023-05-19T03:29:39.465Z,36.71
2023-05-19T03:30:39.451Z,36.67
2023-05-19T03:31:39.489Z,36.69
2023-05-19T03:32:39.576Z,36.67
2023-05-19T03:33:39.608Z,36.70
2023-05-19T03:34:39.604Z,36.70
2023-05-19T03:35:39.609Z,36.68
2023-05-19T03:36:39.698Z,36.67
2023-05-19T03:37:39.652Z,36.66
2023-05-19T03:38:39.698Z,36.65
2023-05-19T03:39:39.761Z,36.66
2023-05-19T03:40:39.752Z,36.66
2023-05-19T03:41:39.822Z,36.66
2023-05-19T03:42:39.857Z,36.66
2023-05-19T03:43:39.869Z,36.64
2023-05-19T03:44:39.894Z,36.61
2023-05-19T03:45:40.046Z,36.61
2023-05-19T03:46:39.999Z,36.65
2023-05-19T03:47:39.993Z,36.64
2023-05-19T03:48:40.021Z,36.64
2023-05-19T03:49:40.031Z,36.62
2023-05-19T03:50:40.124Z,36.62
2023-05-19T03:51:40.128Z,36.61
2023-05-19T03:52:40.120Z,36.62
2023-05-19T03:53:40.145Z,36.61
2023-05-19T03:54:40.178Z,36.61
2023-05-19T03:55:40.244Z,36.62
2023-05-19T03:56:41.264Z,36.59
2023-05-19T03:57:40.289Z,36.57
2023-05-19T03:58:40.305Z,36.56
2023-05-19T03:59:40.343Z,36.56
2023-05-19T04:00:40.352Z,36.52
2023-05-19T04:01:40.412Z,36.56
2023-05-19T04:02:40.535Z,36.52
2023-05-19T04:03:40.580Z,36.56
2023-05-19T04:04:40.544Z,36.57
2023-05-19T04:05:40.535Z,36.52
2023-05-19T04:06:40.564Z,36.33
2023-05-19T04:07:40.577Z,36.21
2023-05-19T04:08:40.644Z,36.19
2023-05-19T04:09:40.657Z,36.14
2023-05-19T04:10:40.684Z,36.07
2023-05-19T04:11:40.789Z,35.91
2023-05-19T04:12:40.816Z,35.81
2023-05-19T04:13:40.806Z,35.77
2023-05-19T04:14:40.863Z,35.67
2023-05-19T04:15:40.945Z,35.58
2023-05-19T04:16:40.982Z,35.53
2023-05-19T04:17:41.071Z,35.45
2023-05-19T04:18:41.059Z,35.29
2023-05-19T04:19:41.062Z,35.21
2023-05-19T04:20:41.147Z,35.06
2023-05-19T04:21:41.244Z,34.80
2023-05-19T04:22:41.209Z,34.47
2023-05-19T04:23:41.190Z,34.07
2023-05-19T04:24:41.177Z,33.90
2023-05-19T04:25:41.182Z,33.95
2023-05-19T04:26:41.176Z,33.99
2023-05-19T04:27:41.207Z,33.97
2023-05-19T04:28:41.222Z,34.10
2023-05-19T04:29:41.241Z,34.05
2023-05-19T04:30:41.245Z,34.04
2023-05-19T04:31:41.346Z,34.05
2023-05-19T04:32:41.376Z,34.22
2023-05-19T04:33:41.364Z,34.18
2023-05-19T04:34:41.353Z,34.29
2023-05-19T04:35:41.410Z,34.32
2023-05-19T04:36:41.461Z,34.40
2023-05-19T04:37:41.462Z,34.37
2023-05-19T04:38:41.585Z,34.39
2023-05-19T04:39:41.585Z,34.42
2023-05-19T04:40:41.614Z,34.46
2023-05-19T04:41:41.618Z,34.49
2023-05-19T04:42:41.688Z,34.47
2023-05-19T04:43:41.913Z,34.46
2023-05-19T04:44:41.752Z,34.42
2023-05-19T04:45:41.768Z,34.40
2023-05-19T04:46:41.873Z,34.40
2023-05-19T04:47:41.915Z,34.41
2023-05-19T04:48:41.887Z,34.45
2023-05-19T04:49:41.904Z,34.49
2023-05-19T04:50:41.895Z,34.45
2023-05-19T04:51:41.977Z,34.49
2023-05-19T04:52:41.961Z,34.46
2023-05-19T04:53:41.981Z,34.45
2023-05-19T04:54:42.001Z,34.45
2023-05-19T04:55:41.978Z,34.44
2023-05-19T04:56:42.012Z,34.45
2023-05-19T04:57:42.039Z,34.47
2023-05-19T04:58:42.087Z,34.45
2023-05-19T04:59:42.136Z,34.49
2023-05-19T05:00:42.106Z,34.50
2023-05-19T05:01:42.108Z,34.50
2023-05-19T05:02:42.164Z,34.52
2023-05-19T05:03:42.229Z,34.52
2023-05-19T05:04:42.099Z,34.53
2023-05-19T05:05:42.117Z,34.57
2023-05-19T05:06:42.155Z,34.54
2023-05-19T05:07:42.123Z,34.57
2023-05-19T05:08:42.173Z,34.60
2023-05-19T05:09:42.185Z,34.63
2023-05-19T05:10:42.208Z,34.62
2023-05-19T05:11:42.188Z,34.62
2023-05-19T05:12:42.231Z,34.66
2023-05-19T05:13:42.273Z,34.71
2023-05-19T05:14:42.260Z,34.67
2023-05-19T05:15:42.250Z,34.68
2023-05-19T05:16:42.342Z,34.70
2023-05-19T05:17:42.354Z,34.75
2023-05-19T05:18:44.660Z,34.75
2023-05-19T05:19:42.310Z,34.75
2023-05-19T05:20:42.277Z,34.76
2023-05-19T05:21:42.289Z,34.79
2023-05-19T05:22:42.261Z,34.83
2023-05-19T05:23:42.273Z,34.79
2023-05-19T05:24:42.276Z,34.82
2023-05-19T05:25:42.243Z,34.82
2023-05-19T05:26:42.259Z,34.83
2023-05-19T05:27:42.227Z,34.86
2023-05-19T05:28:42.248Z,34.85
2023-05-19T05:29:42.196Z,34.83
2023-05-19T05:30:42.206Z,34.87
2023-05-19T05:31:42.217Z,34.85
2023-05-19T05:32:42.271Z,34.87
2023-05-19T05:33:42.289Z,34.88
2023-05-19T05:34:42.180Z,34.85
2023-05-19T05:35:42.214Z,34.83
2023-05-19T05:36:42.195Z,34.80
2023-05-19T05:37:42.186Z,34.83
2023-05-19T05:38:42.159Z,34.80
2023-05-19T05:39:42.144Z,34.81
2023-05-19T05:40:42.173Z,34.77
2023-05-19T05:41:42.142Z,34.81
2023-05-19T05:42:42.132Z,34.79
2023-05-19T05:43:42.132Z,34.81
2023-05-19T05:44:42.143Z,34.78
2023-05-19T05:45:42.149Z,34.80
2023-05-19T05:46:42.139Z,34.77
2023-05-19T05:47:42.203Z,34.75
2023-05-19T05:48:42.136Z,34.75
2023-05-19T05:49:42.135Z,34.72
2023-05-19T05:50:42.087Z,34.72
2023-05-19T05:51:46.335Z,34.70
2023-05-19T05:52:43.089Z,34.70
2023-05-19T05:53:42.064Z,34.69
2023-05-19T05:54:42.082Z,34.66
2023-05-19T05:55:42.044Z,34.65
2023-05-19T05:56:42.067Z,34.63
2023-05-19T05:57:42.048Z,34.64
2023-05-19T05:58:42.067Z,34.62
2023-05-19T05:59:42.000Z,34.59
2023-05-19T06:00:42.050Z,34.61
2023-05-19T06:01:42.026Z,34.61
2023-05-19T06:02:42.115Z,34.60
2023-05-19T06:03:42.064Z,34.57
2023-05-19T06:04:41.986Z,34.62
2023-05-19T06:05:42.020Z,34.60
2023-05-19T06:06:42.002Z,34.58
2023-05-19T06:07:41.997Z,34.59
2023-05-19T06:08:41.973Z,34.56
2023-05-19T06:09:41.972Z,34.54
2023-05-19T06:10:41.979Z,34.53
2023-05-19T06:11:41.949Z,34.53
2023-05-19T06:12:41.989Z,34.45
2023-05-19T06:13:41.935Z,34.37
2023-05-19T06:14:41.973Z,34.28
2023-05-19T06:15:41.928Z,34.21
2023-05-19T06:16:42.043Z,34.12
2023-05-19T06:17:41.968Z,34.10
2023-05-19T06:18:41.918Z,33.97
2023-05-19T06:19:41.980Z,33.88
2023-05-19T06:20:42.022Z,33.85
2023-05-19T06:21:42.039Z,33.86
2023-05-19T06:22:42.101Z,33.83
2023-05-19T06:23:42.173Z,33.86
2023-05-19T06:24:42.181Z,33.85
2023-05-19T06:25:42.266Z,33.87
2023-05-19T06:26:42.265Z,33.94
2023-05-19T06:27:42.342Z,33.95
2023-05-19T06:28:42.348Z,33.95
2023-05-19T06:29:42.407Z,33.95
2023-05-19T06:30:42.429Z,33.96
2023-05-19T06:31:42.530Z,33.98
2023-05-19T06:32:42.545Z,34.06
2023-05-19T06:33:42.527Z,34.06
2023-05-19T06:34:42.620Z,34.09
2023-05-19T06:35:42.649Z,34.11
2023-05-19T06:36:42.668Z,34.13
2023-05-19T06:37:42.748Z,34.16
2023-05-19T06:38:42.794Z,34.17
2023-05-19T06:39:42.817Z,34.16
2023-05-19T06:40:42.869Z,34.10
2023-05-19T06:41:42.909Z,34.10
2023-05-19T06:42:42.957Z,34.14
2023-05-19T06:43:42.990Z,34.08
2023-05-19T06:44:43.078Z,34.07
2023-05-19T06:45:43.068Z,34.09
2023-05-19T06:46:43.162Z,34.05
2023-05-19T06:47:43.245Z,34.00
2023-05-19T06:48:43.178Z,33.97
2023-05-19T06:49:43.207Z,33.87
2023-05-19T06:50:43.210Z,33.77
2023-05-19T06:51:43.238Z,33.73
2023-05-19T06:52:43.216Z,33.72
2023-05-19T06:53:43.233Z,33.66
2023-05-19T06:54:43.224Z,33.67
2023-05-19T06:55:57.455Z,33.65
2023-05-19T06:56:44.246Z,33.66
2023-05-19T06:57:43.216Z,33.65
2023-05-19T06:58:43.254Z,33.65
2023-05-19T06:59:43.220Z,33.73
2023-05-19T07:00:43.200Z,33.74
2023-05-19T07:01:43.297Z,33.73
2023-05-19T07:02:43.277Z,33.76
2023-05-19T07:03:43.217Z,33.79
2023-05-19T07:04:43.285Z,33.80
2023-05-19T07:05:43.183Z,33.80
2023-05-19T07:06:43.171Z,33.83
2023-05-19T07:07:43.179Z,33.83
2023-05-19T07:08:43.171Z,33.86
2023-05-19T07:09:43.193Z,33.86
2023-05-19T07:10:43.146Z,33.86
2023-05-19T07:11:43.180Z,33.88
2023-05-19T07:12:43.124Z,33.88
2023-05-19T07:13:43.118Z,33.84
2023-05-19T07:14:43.085Z,33.87
2023-05-19T07:15:43.137Z,33.85
2023-05-19T07:16:43.170Z,33.86
2023-05-19T07:17:43.196Z,33.87
2023-05-19T07:18:43.172Z,33.85
2023-05-19T07:19:43.169Z,33.83
2023-05-19T07:20:43.056Z,33.79
2023-05-19T07:21:43.077Z,33.81
2023-05-19T07:22:43.032Z,33.78
2023-05-19T07:23:43.056Z,33.69
2023-05-19T07:24:43.045Z,33.62
2023-05-19T07:25:43.017Z,33.61
2023-05-19T07:26:43.032Z,33.55
2023-05-19T07:27:43.009Z,33.56
2023-05-19T07:28:43.029Z,33.57
2023-05-19T07:29:42.985Z,33.60
2023-05-19T07:30:43.020Z,33.60
2023-05-19T07:31:43.037Z,33.61
2023-05-19T07:32:43.035Z,33.55
2023-05-19T07:33:43.009Z,33.56
2023-05-19T07:34:42.976Z,33.53
2023-05-19T07:35:42.952Z,33.47
2023-05-19T07:36:43.080Z,33.49
2023-05-19T07:37:42.947Z,33.49
2023-05-19T07:38:43.014Z,33.44
2023-05-19T07:39:42.953Z,33.43
2023-05-19T07:40:42.911Z,33.48
2023-05-19T07:41:42.966Z,33.45
2023-05-19T07:42:42.897Z,33.42
2023-05-19T07:43:42.924Z,33.37
2023-05-19T07:44:42.898Z,33.31
2023-05-19T07:45:42.969Z,33.30
2023-05-19T07:46:42.889Z,33.30
2023-05-19T07:47:42.941Z,33.28
2023-05-19T07:48:42.900Z,33.21
2023-05-19T07:49:42.987Z,33.21
2023-05-19T07:50:43.028Z,33.20
2023-05-19T07:51:43.028Z,33.10
2023-05-19T07:52:43.068Z,33.11
2023-05-19T07:53:43.116Z,33.01
2023-05-19T07:54:43.143Z,33.09
2023-05-19T07:55:43.188Z,33.06
2023-05-19T07:56:43.236Z,33.09
2023-05-19T07:57:43.325Z,33.09
2023-05-19T07:58:43.405Z,33.05
2023-05-19T07:59:43.397Z,33.07
2023-05-19T08:00:43.501Z,33.10
2023-05-19T08:01:43.514Z,33.10
2023-05-19T08:02:43.647Z,33.08
2023-05-19T08:03:43.772Z,33.05
2023-05-19T08:04:43.781Z,33.07
2023-05-19T08:05:43.738Z,33.08
2023-05-19T08:06:43.818Z,33.07
2023-05-19T08:07:43.892Z,33.08
2023-05-19T08:08:43.929Z,33.14
2023-05-19T08:09:44.012Z,33.16
2023-05-19T08:10:44.063Z,33.14
2023-05-19T08:11:44.125Z,33.13
2023-05-19T08:12:44.207Z,33.15
2023-05-19T08:13:44.239Z,33.12
2023-05-19T08:14:44.279Z,33.16
2023-05-19T08:15:44.341Z,33.17
2023-05-19T08:16:44.404Z,33.10
2023-05-19T08:17:44.477Z,33.04
2023-05-19T08:18:44.601Z,33.05
2023-05-19T08:19:44.545Z,33.04
2023-05-19T08:20:44.583Z,33.02
2023-05-19T08:21:44.745Z,32.88
2023-05-19T08:22:44.673Z,32.81
2023-05-19T08:23:44.726Z,32.83
2023-05-19T08:24:44.851Z,32.83
2023-05-19T08:25:44.812Z,32.76
2023-05-19T08:26:44.873Z,32.72
2023-05-19T08:27:44.880Z,32.68
2023-05-19T08:28:44.940Z,32.69
2023-05-19T08:29:44.982Z,32.67
2023-05-19T08:30:45.010Z,32.67
2023-05-19T08:31:45.089Z,32.53
2023-05-19T08:32:45.101Z,32.52
2023-05-19T08:33:45.113Z,32.52
2023-05-19T08:34:45.103Z,32.46
2023-05-19T08:35:45.133Z,32.48
2023-05-19T08:36:45.182Z,32.47
2023-05-19T08:37:45.180Z,32.46
2023-05-19T08:38:45.195Z,32.51
2023-05-19T08:39:45.237Z,32.44
2023-05-19T08:40:45.244Z,32.37
2023-05-19T08:41:45.259Z,32.45
2023-05-19T08:42:45.292Z,32.43
2023-05-19T08:43:45.313Z,32.44
2023-05-19T08:44:45.324Z,32.44
2023-05-19T08:45:45.304Z,32.39
2023-05-19T08:46:45.309Z,32.42
2023-05-19T08:47:45.350Z,32.32
2023-05-19T08:48:45.365Z,32.34
2023-05-19T08:49:45.345Z,32.29
2023-05-19T08:50:45.325Z,32.28
2023-05-19T08:51:45.381Z,32.31
2023-05-19T08:52:47.864Z,32.27
2023-05-19T08:53:45.363Z,32.35
2023-05-19T08:54:45.362Z,32.34
2023-05-19T08:55:45.347Z,32.40
2023-05-19T08:56:45.344Z,32.40
2023-05-19T08:57:45.333Z,32.35
2023-05-19T08:58:45.329Z,32.34
2023-05-19T08:59:45.296Z,32.35
2023-05-19T09:00:45.309Z,32.32
2023-05-19T09:01:45.464Z,32.32
2023-05-19T09:02:55.070Z,32.32
2023-05-19T09:03:46.428Z,32.35
2023-05-19T09:04:45.337Z,32.27
2023-05-19T09:05:45.305Z,32.25
2023-05-19T09:06:45.380Z,32.23
2023-05-19T09:07:45.269Z,32.21
2023-05-19T09:08:45.284Z,32.21
2023-05-19T09:09:45.225Z,32.16
2023-05-19T09:10:45.261Z,32.15
2023-05-19T09:11:45.233Z,32.15
2023-05-19T09:12:45.248Z,32.15
2023-05-19T09:13:45.231Z,32.12
2023-05-19T09:14:45.221Z,32.09
2023-05-19T09:15:45.201Z,32.10
2023-05-19T09:16:45.222Z,32.08
2023-05-19T09:17:45.198Z,32.06
2023-05-19T09:18:45.234Z,32.03
2023-05-19T09:19:45.192Z,31.94
2023-05-19T09:20:45.230Z,31.92
2023-05-19T09:21:45.190Z,31.91
2023-05-19T09:22:45.168Z,31.92
2023-05-19T09:23:45.184Z,31.92
2023-05-19T09:24:45.217Z,31.94
2023-05-19T09:25:45.149Z,31.95
2023-05-19T09:26:45.144Z,31.92
2023-05-19T09:27:45.138Z,31.98
2023-05-19T09:28:45.125Z,31.97
2023-05-19T09:29:45.167Z,31.99
2023-05-19T09:30:45.186Z,31.97
2023-05-19T09:31:45.281Z,31.94
2023-05-19T09:32:45.386Z,31.87
2023-05-19T09:33:46.209Z,31.85
2023-05-19T09:34:45.426Z,31.84
2023-05-19T09:35:45.478Z,31.74
2023-05-19T09:36:45.513Z,31.75
2023-05-19T09:37:45.573Z,31.72
2023-05-19T09:38:45.658Z,31.80
2023-05-19T09:39:45.715Z,31.76
2023-05-19T09:40:45.801Z,31.79
2023-05-19T09:41:45.828Z,31.85
2023-05-19T09:42:45.853Z,31.73
2023-05-19T09:43:45.944Z,31.80
2023-05-19T09:44:45.973Z,31.80
2023-05-19T09:45:46.081Z,31.78
2023-05-19T09:46:46.137Z,31.78
2023-05-19T09:47:46.218Z,31.72
2023-05-19T09:48:46.188Z,31.74
2023-05-19T09:49:46.217Z,31.68
2023-05-19T09:50:46.248Z,31.75
2023-05-19T09:51:46.296Z,31.71
2023-05-19T09:52:46.361Z,31.57
2023-05-19T09:53:46.395Z,31.59
2023-05-19T09:54:46.432Z,31.54
2023-05-19T09:55:46.466Z,31.56
2023-05-19T09:56:46.500Z,31.48
2023-05-19T09:57:46.529Z,31.58
2023-05-19T09:58:46.539Z,31.56
2023-05-19T09:59:46.577Z,31.56
2023-05-19T10:00:46.594Z,31.56
2023-05-19T10:01:46.753Z,31.55
2023-05-19T10:02:46.682Z,31.59
2023-05-19T10:03:46.668Z,31.57
2023-05-19T10:04:46.795Z,31.53
2023-05-19T10:05:46.764Z,31.54
2023-05-19T10:06:46.735Z,31.56
2023-05-19T10:07:46.777Z,31.51
2023-05-19T10:08:46.805Z,31.48
2023-05-19T10:09:46.810Z,31.51
2023-05-19T10:10:46.816Z,31.53
2023-05-19T10:11:46.886Z,31.54
2023-05-19T10:12:46.884Z,31.39
2023-05-19T10:13:46.892Z,31.48
2023-05-19T10:14:46.912Z,31.45
2023-05-19T10:16:47.997Z,31.41
2023-05-19T10:17:46.925Z,31.40
2023-05-19T10:18:46.973Z,31.34
2023-05-19T10:19:46.888Z,31.36
2023-05-19T10:20:46.858Z,31.31
2023-05-19T10:21:46.890Z,31.31
2023-05-19T10:22:46.885Z,31.33
2023-05-19T10:23:46.914Z,31.31
2023-05-19T10:24:46.862Z,31.30
2023-05-19T10:25:46.875Z,31.27
2023-05-19T10:26:46.880Z,31.29
2023-05-19T10:27:46.807Z,31.28
2023-05-19T10:28:46.883Z,31.27
2023-05-19T10:29:46.822Z,31.26
2023-05-19T10:30:46.830Z,31.28
2023-05-19T10:31:46.845Z,31.27
2023-05-19T10:32:46.875Z,31.25
2023-05-19T10:33:46.812Z,31.26
2023-05-19T10:34:46.825Z,31.21
2023-05-19T10:35:47.307Z,31.23
2023-05-19T10:36:46.774Z,31.22
2023-05-19T10:37:46.797Z,31.22
2023-05-19T10:38:46.757Z,31.20
2023-05-19T10:39:46.824Z,31.19
2023-05-19T10:40:46.771Z,31.21
2023-05-19T10:41:47.094Z,31.19
2023-05-19T10:42:46.740Z,31.19
2023-05-19T10:43:46.729Z,31.17
2023-05-19T10:44:46.743Z,31.20
2023-05-19T10:45:46.718Z,31.19
2023-05-19T10:46:46.742Z,31.21
2023-05-19T10:47:46.763Z,31.19
2023-05-19T10:48:46.703Z,31.19
2023-05-19T10:49:46.676Z,31.19
2023-05-19T10:50:46.697Z,31.18
2023-05-19T10:51:46.690Z,31.20
2023-05-19T10:52:46.699Z,31.18
2023-05-19T10:53:46.754Z,31.22
2023-05-19T10:54:46.738Z,31.21
2023-05-19T10:55:46.711Z,31.22
2023-05-19T10:56:46.728Z,31.21
2023-05-19T10:57:46.724Z,31.17
2023-05-19T10:58:46.749Z,31.14
2023-05-19T10:59:46.739Z,31.13
2023-05-19T11:00:46.798Z,31.10
2023-05-19T11:01:46.810Z,31.11
2023-05-19T11:02:46.805Z,31.07
2023-05-19T11:03:46.860Z,31.09
2023-05-19T11:04:48.892Z,31.10
2023-05-19T11:05:46.790Z,31.09
2023-05-19T11:06:46.800Z,31.05
2023-05-19T11:07:46.796Z,31.08
2023-05-19T11:08:46.806Z,31.03
2023-05-19T11:09:46.755Z,31.05
2023-05-19T11:10:46.766Z,31.02
2023-05-19T11:11:46.802Z,31.05
2023-05-19T11:12:46.804Z,31.00
2023-05-19T11:13:46.791Z,31.00
2023-05-19T11:14:46.750Z,31.01
2023-05-19T11:15:46.753Z,31.01
2023-05-19T11:16:46.900Z,30.99
2023-05-19T11:17:46.756Z,30.97
2023-05-19T11:18:46.799Z,31.01
2023-05-19T11:19:46.731Z,30.97
2023-05-19T11:20:46.784Z,30.97
2023-05-19T11:21:46.746Z,30.97
2023-05-19T11:22:46.689Z,31.00
2023-05-19T11:23:46.778Z,30.96
2023-05-19T11:24:46.721Z,30.97
2023-05-19T11:25:46.822Z,30.97
2023-05-19T11:26:46.892Z,30.96
2023-05-19T11:27:46.883Z,30.96
2023-05-19T11:28:46.949Z,30.97
2023-05-19T11:29:47.007Z,30.97
2023-05-19T11:30:47.053Z,30.97
2023-05-19T11:31:47.121Z,30.97
2023-05-19T11:32:47.145Z,30.97
2023-05-19T11:33:47.179Z,31.00
2023-05-19T11:34:47.260Z,30.96
2023-05-19T11:35:47.286Z,30.97
2023-05-19T11:36:47.369Z,30.96
2023-05-19T11:37:47.407Z,30.99
2023-05-19T11:38:47.467Z,30.97
2023-05-19T11:39:47.471Z,30.96
2023-05-19T11:40:47.552Z,30.98
2023-05-19T11:41:47.594Z,30.96
2023-05-19T11:42:47.641Z,30.96
2023-05-19T11:43:47.681Z,30.94
2023-05-19T11:44:47.710Z,30.95
2023-05-19T11:45:47.778Z,30.97
2023-05-19T11:46:47.997Z,30.97
2023-05-19T11:48:01.255Z,30.98
2023-05-19T11:48:48.871Z,30.96
2023-05-19T11:49:47.854Z,30.98
2023-05-19T11:50:47.828Z,31.00
2023-05-19T11:51:47.879Z,30.99
2023-05-19T11:52:47.860Z,30.99
2023-05-19T11:53:47.816Z,31.01
2023-05-19T11:54:47.830Z,31.04
2023-05-19T11:55:48.381Z,31.04
2023-05-19T11:56:47.845Z,31.06
2023-05-19T11:58:02.569Z,31.10
2023-05-19T11:58:48.832Z,31.13
2023-05-19T11:59:47.824Z,31.13
2023-05-19T12:00:48.174Z,31.16
2023-05-19T12:01:47.763Z,31.20
2023-05-19T12:02:47.829Z,31.22
2023-05-19T12:03:47.948Z,31.25
2023-05-19T12:04:47.793Z,31.25
2023-05-19T12:05:48.384Z,31.25
2023-05-19T12:06:47.841Z,31.27
2023-05-19T12:07:47.763Z,31.31
2023-05-19T12:08:47.707Z,31.32
2023-05-19T12:09:47.722Z,31.32
2023-05-19T12:10:47.737Z,31.33
2023-05-19T12:11:47.758Z,31.35
2023-05-19T12:12:47.794Z,31.35
2023-05-19T12:13:47.903Z,31.39
2023-05-19T12:14:47.912Z,31.40
2023-05-19T12:15:48.027Z,31.39
2023-05-19T12:16:48.076Z,31.38
2023-05-19T12:17:48.071Z,31.39
2023-05-19T12:18:48.094Z,31.42
2023-05-19T12:19:48.177Z,31.45
2023-05-19T12:20:48.197Z,31.46
2023-05-19T12:21:48.306Z,31.45
2023-05-19T12:22:48.323Z,31.44
2023-05-19T12:23:48.409Z,31.48
2023-05-19T12:24:48.447Z,31.50
2023-05-19T12:25:48.461Z,31.50
2023-05-19T12:26:48.555Z,31.52
2023-05-19T12:27:48.566Z,31.54
2023-05-19T12:28:48.633Z,31.57
2023-05-19T12:29:48.682Z,31.58
2023-05-19T12:30:48.759Z,31.57
2023-05-19T12:31:48.838Z,31.58
2023-05-19T12:32:48.850Z,31.58
2023-05-19T12:33:48.870Z,31.61
2023-05-19T12:34:48.972Z,31.59
2023-05-19T12:35:48.968Z,31.61
2023-05-19T12:36:49.055Z,31.63
2023-05-19T12:37:49.124Z,31.63
2023-05-19T12:38:49.200Z,31.65
2023-05-19T12:39:49.272Z,31.65
2023-05-19T12:40:49.280Z,31.67
2023-05-19T12:41:49.348Z,31.67
2023-05-19T12:42:49.376Z,31.69
2023-05-19T12:43:49.479Z,31.71
2023-05-19T12:44:49.551Z,31.70
2023-05-19T12:45:49.647Z,31.71
2023-05-19T12:46:49.639Z,31.72
2023-05-19T12:47:49.745Z,31.72
2023-05-19T12:48:49.775Z,31.72
2023-05-19T12:49:49.834Z,31.72
2023-05-19T12:50:49.868Z,31.71
2023-05-19T12:51:49.947Z,31.72
2023-05-19T12:52:49.953Z,31.73
2023-05-19T12:53:50.081Z,31.70